createdAt,value
2019-04-05T00:01:12.200Z,54.30
2019-04-05T00:03:43.557Z,54.00
2019-04-05T00:06:15.287Z,53.73
2019-04-05T00:08:46.539Z,53.92
2019-04-05T00:11:17.845Z,54.44
2019-04-05T00:13:49.131Z,54.45
2019-04-05T00:16:20.428Z,54.55
2019-04-05T00:18:51.649Z,54.21
2019-04-05T00:21:22.895Z,54.36
2019-04-05T00:23:54.223Z,53.62
2019-04-05T00:26:25.532Z,53.83
2019-04-05T00:28:56.778Z,53.84
2019-04-05T00:31:28.163Z,53.46
2019-04-05T00:33:59.455Z,53.92
2019-04-05T00:36:30.756Z,54.17
2019-04-05T00:39:02.039Z,53.91
2019-04-05T00:41:34.065Z,54.07
2019-04-05T00:44:05.405Z,54.07
2019-04-05T00:46:36.708Z,54.18
2019-04-05T00:49:09.579Z,53.94
2019-04-05T00:51:40.865Z,54.10
2019-04-05T00:54:12.223Z,54.55
2019-04-05T00:56:43.509Z,54.41
2019-04-05T00:59:14.741Z,54.29
2019-04-05T01:01:46.083Z,54.21
2019-04-05T01:04:17.407Z,54.58
2019-04-05T01:06:48.773Z,55.01
2019-04-05T01:09:20.099Z,55.25
2019-04-05T01:11:51.458Z,55.13
2019-04-05T01:14:23.885Z,54.98
2019-04-05T01:16:56.138Z,55.15
2019-04-05T01:19:28.937Z,55.36
2019-04-05T01:22:00.217Z,55.52
2019-04-05T01:24:31.456Z,55.32
2019-04-05T01:27:03.945Z,55.47
2019-04-05T01:29:35.237Z,55.69
2019-04-05T01:32:06.549Z,55.88
2019-04-05T01:34:37.848Z,56.00
2019-04-05T01:37:10.128Z,55.81
2019-04-05T01:39:41.343Z,56.01
2019-04-05T01:42:12.665Z,56.13
2019-04-05T01:44:43.905Z,56.09
2019-04-05T01:47:15.141Z,56.33
2019-04-05T01:49:46.420Z,56.47
2019-04-05T01:52:17.668Z,56.56
2019-04-05T01:54:49.933Z,56.59
2019-04-05T01:57:21.238Z,56.42
2019-04-05T01:59:52.442Z,56.42
2019-04-05T02:02:23.793Z,56.59
2019-04-05T02:04:55.013Z,56.53
2019-04-05T02:07:26.233Z,56.38
2019-04-05T02:09:57.446Z,56.70
2019-04-05T02:12:28.751Z,56.63
2019-04-05T02:15:01.718Z,56.82
2019-04-05T02:17:35.807Z,56.49
2019-04-05T02:20:07.511Z,56.93
2019-04-05T02:22:38.821Z,56.97
2019-04-05T02:25:10.177Z,57.03
2019-04-05T02:27:41.438Z,56.89
2019-04-05T02:30:12.801Z,65.57
2019-04-05T02:32:44.123Z,66.41
2019-04-05T02:35:15.433Z,65.43
2019-04-05T02:37:46.808Z,63.68
2019-04-05T02:40:19.223Z,64.31
2019-04-05T02:42:51.046Z,64.84
2019-04-05T02:45:22.319Z,64.62
2019-04-05T02:47:55.444Z,65.17
2019-04-05T02:50:27.150Z,65.39
2019-04-05T02:52:59.940Z,66.27
2019-04-05T02:55:31.484Z,66.51
2019-04-05T02:58:02.837Z,66.32
2019-04-05T03:00:34.185Z,66.54
2019-04-05T03:03:05.515Z,67.06
2019-04-05T03:05:37.240Z,66.79
2019-04-05T03:08:08.579Z,66.56
2019-04-05T03:11:05.134Z,66.74
2019-04-05T03:13:40.275Z,66.49
2019-04-05T03:16:20.878Z,66.25
2019-04-05T03:18:54.733Z,66.95
2019-04-05T03:21:26.663Z,66.78
2019-04-05T03:23:59.537Z,66.48
2019-04-05T03:26:32.399Z,66.62
2019-04-05T03:29:07.886Z,66.29
2019-04-05T03:31:40.846Z,66.10
2019-04-05T03:34:12.163Z,65.36
2019-04-05T03:36:43.415Z,64.73
2019-04-05T03:39:14.765Z,64.32
2019-04-05T03:41:50.056Z,64.46
2019-04-05T03:44:23.080Z,64.23
2019-04-05T03:46:57.706Z,63.59
2019-04-05T03:49:27.558Z,63.38
2019-04-05T03:51:58.868Z,62.12
2019-04-05T03:54:31.085Z,61.34
2019-04-05T03:57:05.306Z,60.68
2019-04-05T03:59:38.058Z,60.97
2019-04-05T04:02:10.440Z,63.78
2019-04-05T04:04:41.664Z,63.75
2019-04-05T04:07:13.223Z,64.17
2019-04-05T04:09:45.595Z,63.78
2019-04-05T04:12:16.910Z,63.27
2019-04-05T04:14:48.330Z,63.31
2019-04-05T04:17:20.602Z,63.09
2019-04-05T04:19:52.913Z,60.59
2019-04-05T04:22:28.239Z,59.66
2019-04-05T04:24:59.309Z,58.14
2019-04-05T04:27:31.580Z,56.68
2019-04-05T04:30:03.980Z,54.66
2019-04-05T04:32:35.184Z,54.05
2019-04-05T04:35:06.544Z,52.71
2019-04-05T04:37:37.914Z,51.50
2019-04-05T04:40:09.192Z,51.71
2019-04-05T04:42:40.561Z,49.92
2019-04-05T04:45:12.956Z,48.61
2019-04-05T04:47:44.489Z,47.30
2019-04-05T04:50:15.734Z,46.02
2019-04-05T04:52:46.814Z,45.89
2019-04-05T04:55:18.094Z,47.05
2019-04-05T04:57:49.302Z,46.05
2019-04-05T05:00:20.530Z,43.90
2019-04-05T05:02:51.892Z,45.96
2019-04-05T05:05:23.006Z,43.16
2019-04-05T05:07:54.321Z,39.29
2019-04-05T05:10:25.565Z,40.63
2019-04-05T05:12:56.916Z,40.54
2019-04-05T05:15:28.211Z,40.56
2019-04-05T05:17:59.504Z,42.97
2019-04-05T05:20:30.850Z,43.45
2019-04-05T05:23:03.259Z,43.30
2019-04-05T05:25:34.575Z,41.34
2019-04-05T05:28:05.813Z,40.13
2019-04-05T05:30:37.184Z,40.69
2019-04-05T05:33:08.442Z,39.98
2019-04-05T05:35:39.686Z,38.21
2019-04-05T05:38:11.065Z,37.53
2019-04-05T05:40:42.356Z,38.57
2019-04-05T05:43:13.806Z,37.44
2019-04-05T05:45:45.073Z,35.54
2019-04-05T05:48:16.384Z,35.15
2019-04-05T05:50:47.842Z,33.70
2019-04-05T05:53:19.321Z,35.67
2019-04-05T05:55:52.719Z,36.55
2019-04-05T05:58:25.752Z,34.79
2019-04-05T06:00:57.379Z,35.37
2019-04-05T06:03:28.681Z,35.00
2019-04-05T06:06:04.617Z,35.13
2019-04-05T06:08:33.135Z,35.16
2019-04-05T06:11:04.547Z,33.91
2019-04-05T06:13:35.962Z,33.05
2019-04-05T06:16:08.473Z,33.18
2019-04-05T06:18:40.019Z,31.52
2019-04-05T06:21:11.816Z,30.85
2019-04-05T06:23:43.207Z,31.23
2019-04-05T06:26:14.544Z,30.91
2019-04-05T06:28:45.997Z,30.19
2019-04-05T06:31:17.896Z,30.77
2019-04-05T06:33:49.556Z,29.92
2019-04-05T06:36:21.215Z,29.21
2019-04-05T06:38:54.400Z,28.90
2019-04-05T06:41:26.225Z,28.78
2019-04-05T06:43:59.349Z,27.74
2019-04-05T06:46:31.012Z,26.09
2019-04-05T06:49:02.702Z,25.03
2019-04-05T06:51:34.283Z,25.75
2019-04-05T06:54:06.665Z,25.75
2019-04-05T06:56:39.582Z,25.30
2019-04-05T06:59:11.442Z,25.35
2019-04-05T07:01:43.027Z,24.53
2019-04-05T07:04:14.424Z,24.64
2019-04-05T07:06:45.809Z,24.83
2019-04-05T07:09:17.467Z,25.06
2019-04-05T07:11:48.785Z,25.20
2019-04-05T07:14:20.083Z,24.54
2019-04-05T07:16:51.458Z,24.29
2019-04-05T07:19:22.850Z,24.74
2019-04-05T07:21:54.184Z,23.21
2019-04-05T07:24:25.593Z,24.00
2019-04-05T07:27:00.893Z,22.60
2019-04-05T07:29:32.265Z,23.77
2019-04-05T07:32:03.596Z,22.81
2019-04-05T07:34:34.953Z,24.03
2019-04-05T07:37:06.319Z,22.05
2019-04-05T07:39:37.735Z,21.66
2019-04-05T07:42:09.115Z,20.58
2019-04-05T07:44:40.493Z,22.27
2019-04-05T07:47:11.797Z,20.76
2019-04-05T07:49:44.190Z,20.31
2019-04-05T07:52:15.502Z,21.04
2019-04-05T07:54:48.177Z,20.18
2019-04-05T07:57:19.599Z,19.67
2019-04-05T07:59:51.227Z,18.66
2019-04-05T08:02:24.780Z,20.23
2019-04-05T08:04:56.349Z,22.35
2019-04-05T08:07:32.888Z,23.94
2019-04-05T08:10:07.332Z,25.00
2019-04-05T08:12:41.249Z,23.87
2019-04-05T08:15:14.621Z,23.72
2019-04-05T08:17:47.937Z,23.93
2019-04-05T08:20:20.399Z,25.18
2019-04-05T08:22:52.044Z,25.83
2019-04-05T08:25:23.491Z,25.71
2019-04-05T08:27:54.820Z,26.00
2019-04-05T08:30:27.165Z,27.09
2019-04-05T08:32:58.939Z,26.70
2019-04-05T08:35:30.322Z,26.10
2019-04-05T08:38:02.035Z,25.92
2019-04-05T08:40:33.383Z,25.05
2019-04-05T08:43:05.487Z,25.13
2019-04-05T08:45:36.834Z,23.97
2019-04-05T08:48:08.232Z,24.18
2019-04-05T08:50:39.806Z,23.49
2019-04-05T08:53:13.495Z,24.19
2019-04-05T08:55:44.981Z,23.45
2019-04-05T08:58:16.293Z,25.83
2019-04-05T09:00:47.737Z,25.85
2019-04-05T09:06:30.496Z,25.95
2019-04-05T09:09:01.650Z,25.72
2019-04-05T09:11:36.858Z,27.04
2019-04-05T09:14:09.418Z,25.29
2019-04-05T09:16:40.883Z,26.03
2019-04-05T09:19:23.838Z,27.01
2019-04-05T09:21:59.373Z,26.65
2019-04-05T09:24:30.795Z,27.30
2019-04-05T09:27:02.125Z,26.03
2019-04-05T09:29:34.590Z,27.39
2019-04-05T09:32:07.021Z,26.43
2019-04-05T09:34:38.320Z,26.37
2019-04-05T09:37:10.872Z,27.97
2019-04-05T09:39:42.270Z,26.33
2019-04-05T09:42:14.609Z,26.32
2019-04-05T09:44:45.980Z,26.28
2019-04-05T09:47:17.457Z,25.49
2019-04-05T09:49:48.890Z,25.78
2019-04-05T09:52:20.252Z,26.97
2019-04-05T09:54:51.676Z,25.24
2019-04-05T09:57:23.419Z,24.55
2019-04-05T09:59:55.226Z,24.92
2019-04-05T10:02:26.723Z,26.37
2019-04-05T10:04:58.300Z,24.41
2019-04-05T10:07:30.755Z,24.81
2019-04-05T10:10:02.159Z,25.18
2019-04-05T10:12:34.738Z,24.79
2019-04-05T10:15:07.660Z,26.22
2019-04-05T10:17:39.026Z,28.84
2019-04-05T10:20:10.451Z,27.82
2019-04-05T10:22:43.953Z,25.84
2019-04-05T10:25:15.602Z,26.15
2019-04-05T10:27:47.113Z,26.73
2019-04-05T10:30:20.880Z,26.31
2019-04-05T10:32:52.307Z,26.30
2019-04-05T10:35:23.697Z,26.06
2019-04-05T10:40:39.713Z,26.93
2019-04-05T10:43:11.809Z,26.46
2019-04-05T10:45:43.347Z,26.80
2019-04-05T10:48:14.793Z,26.94
2019-04-05T10:50:46.310Z,26.60
2019-04-05T10:53:26.736Z,26.50
2019-04-05T10:55:59.042Z,26.43
2019-04-05T10:58:30.423Z,26.43
2019-04-05T11:01:01.850Z,26.47
2019-04-05T11:03:33.303Z,26.82
2019-04-05T11:06:04.813Z,26.22
2019-04-05T11:08:36.177Z,26.13
2019-04-05T11:11:07.856Z,27.23
2019-04-05T11:13:41.429Z,27.79
2019-04-05T11:16:12.915Z,27.08
2019-04-05T11:18:45.180Z,26.61
2019-04-05T11:21:22.165Z,27.56
2019-04-05T11:23:57.455Z,27.24
2019-04-05T11:26:30.509Z,27.18
2019-04-05T11:29:01.946Z,26.71
2019-04-05T11:31:33.356Z,28.25
2019-04-05T11:34:04.760Z,29.55
2019-04-05T11:36:37.175Z,27.75
2019-04-05T11:39:11.080Z,26.78
2019-04-05T11:41:42.812Z,25.70
2019-04-05T11:44:21.588Z,26.28
2019-04-05T11:46:52.999Z,25.88
2019-04-05T11:49:24.321Z,25.92
2019-04-05T11:55:04.565Z,26.68
2019-04-05T11:57:35.445Z,26.60
2019-04-05T12:00:35.813Z,28.93
2019-04-05T12:03:16.236Z,27.38
2019-04-05T12:05:47.672Z,27.72
2019-04-05T12:08:19.110Z,25.66
2019-04-05T12:10:50.500Z,27.79
2019-04-05T12:13:21.921Z,28.87
2019-04-05T12:15:53.400Z,28.19
2019-04-05T12:18:24.644Z,26.92
2019-04-05T12:21:00.325Z,25.75
2019-04-05T12:23:33.380Z,26.69
2019-04-05T12:26:04.880Z,29.21
2019-04-05T12:28:37.531Z,25.83
2019-04-05T12:31:08.923Z,26.07
2019-04-05T12:33:40.210Z,26.38
2019-04-05T12:36:11.638Z,26.35
2019-04-05T12:38:44.848Z,26.99
2019-04-05T12:41:18.232Z,27.68
2019-04-05T12:43:51.159Z,25.38
2019-04-05T12:46:22.435Z,29.11
2019-04-05T12:48:53.836Z,26.74
2019-04-05T12:51:25.096Z,26.26
2019-04-05T12:53:57.377Z,30.63
2019-04-05T12:56:28.898Z,26.42
2019-04-05T12:59:00.190Z,25.47
2019-04-05T13:01:33.628Z,27.39
2019-04-05T13:04:05.308Z,26.90
2019-04-05T13:06:36.762Z,26.55
2019-04-05T13:09:10.008Z,25.73
2019-04-05T13:11:41.598Z,27.54
2019-04-05T13:14:14.699Z,25.50
2019-04-05T13:16:49.315Z,25.10
2019-04-05T13:19:28.558Z,26.92
2019-04-05T13:22:02.773Z,27.49
2019-04-05T13:24:34.861Z,25.54
2019-04-05T13:27:06.318Z,25.50
2019-04-05T13:29:37.799Z,25.31
2019-04-05T13:32:09.247Z,26.45
2019-04-05T13:34:40.602Z,26.23
2019-04-05T13:37:20.015Z,30.11
2019-04-05T13:39:45.107Z,25.81
2019-04-05T13:42:16.846Z,26.08
2019-04-05T13:44:48.199Z,29.28
2019-04-05T13:47:19.589Z,25.21
2019-04-05T13:49:50.995Z,25.60
2019-04-05T13:52:22.861Z,26.74
2019-04-05T13:54:54.352Z,26.71
2019-04-05T13:57:28.503Z,27.37
2019-04-05T14:00:00.544Z,26.00
2019-04-05T14:02:31.993Z,28.62
2019-04-05T14:05:04.052Z,25.80
2019-04-05T14:07:38.100Z,26.84
2019-04-05T14:10:12.448Z,25.73
2019-04-05T14:12:43.631Z,29.51
2019-04-05T14:15:15.125Z,25.85
2019-04-05T14:17:49.388Z,25.98
2019-04-05T14:20:20.938Z,26.22
2019-04-05T14:22:52.398Z,27.34
2019-04-05T14:25:26.085Z,29.41
2019-04-05T14:27:58.820Z,27.28
2019-04-05T14:30:32.511Z,27.72
2019-04-05T14:33:03.422Z,25.61
2019-04-05T14:35:36.299Z,25.95
2019-04-05T14:38:07.733Z,26.10
2019-04-05T14:40:39.143Z,25.41
2019-04-05T14:43:14.677Z,25.71
2019-04-05T14:45:45.453Z,25.71
2019-04-05T14:48:16.750Z,25.96
2019-04-05T14:50:49.102Z,25.71
2019-04-05T14:53:20.451Z,25.35
2019-04-05T14:55:53.031Z,26.08
2019-04-05T14:58:24.397Z,26.19
2019-04-05T15:00:55.744Z,25.14
2019-04-05T15:03:27.330Z,24.99
2019-04-05T15:06:00.373Z,24.86
2019-04-05T15:08:33.265Z,24.94
2019-04-05T15:11:04.979Z,25.13
2019-04-05T15:13:36.639Z,25.62
2019-04-05T15:16:11.670Z,25.63
2019-04-05T15:18:42.895Z,25.64
2019-04-05T15:21:14.403Z,26.05
2019-04-05T15:23:46.345Z,26.32
2019-04-05T15:26:21.546Z,25.57
2019-04-05T15:28:55.209Z,25.80
2019-04-05T15:31:27.545Z,25.34
2019-04-05T15:33:58.920Z,25.37
2019-04-05T15:36:32.160Z,25.37
2019-04-05T15:39:05.096Z,25.63
2019-04-05T15:41:36.744Z,26.15
2019-04-05T15:44:08.128Z,25.84
2019-04-05T15:46:40.447Z,26.45
2019-04-05T15:49:12.814Z,26.49
2019-04-05T15:51:44.141Z,27.03
2019-04-05T15:54:15.482Z,28.22
2019-04-05T15:56:46.898Z,28.52
2019-04-05T15:59:18.328Z,28.62
2019-04-05T16:01:49.708Z,28.15
2019-04-05T16:04:22.837Z,27.96
2019-04-05T16:06:54.151Z,28.52
2019-04-05T16:09:25.532Z,28.64
2019-04-05T16:11:57.101Z,28.97
2019-04-05T16:14:28.547Z,29.67
2019-04-05T16:17:01.848Z,30.25
2019-04-05T16:19:33.364Z,30.24
2019-04-05T16:22:04.734Z,31.08
2019-04-05T16:24:39.028Z,31.18
2019-04-05T16:27:10.267Z,31.01
2019-04-05T16:29:41.661Z,31.22
2019-04-05T16:32:13.011Z,31.98
2019-04-05T16:34:44.329Z,32.36
2019-04-05T16:37:15.677Z,32.35
2019-04-05T16:39:46.897Z,32.76
2019-04-05T16:42:19.253Z,32.94
2019-04-05T16:44:50.701Z,33.33
2019-04-05T16:47:22.332Z,33.54
2019-04-05T16:49:55.232Z,33.81
2019-04-05T16:52:28.624Z,34.06
2019-04-05T16:55:01.333Z,34.66
2019-04-05T16:57:34.019Z,34.71
2019-04-05T17:00:10.786Z,34.76
2019-04-05T17:02:42.139Z,34.86
2019-04-05T17:05:14.116Z,35.53
2019-04-05T17:07:45.618Z,34.83
2019-04-05T17:10:16.961Z,34.92
2019-04-05T17:12:48.273Z,34.91
2019-04-05T17:15:19.713Z,34.99
2019-04-05T17:17:51.094Z,35.42
2019-04-05T17:20:22.401Z,35.30
2019-04-05T17:22:58.353Z,35.27
2019-04-05T17:25:27.907Z,34.93
2019-04-05T17:28:00.360Z,35.06
2019-04-05T17:30:31.808Z,35.40
2019-04-05T17:33:03.178Z,35.00
2019-04-05T17:35:34.645Z,35.70
2019-04-05T17:38:07.119Z,35.71
2019-04-05T17:40:38.644Z,36.02
2019-04-05T17:43:09.993Z,36.59
2019-04-05T17:45:42.326Z,36.69
2019-04-05T17:48:19.690Z,37.43
2019-04-05T17:50:52.689Z,37.27
2019-04-05T17:53:23.959Z,37.72
2019-04-05T17:55:59.054Z,37.69
2019-04-05T17:58:29.806Z,37.86
2019-04-05T18:01:01.441Z,37.89
2019-04-05T18:03:32.831Z,38.03
2019-04-05T18:06:04.249Z,38.17
2019-04-05T18:08:35.567Z,38.21
2019-04-05T18:11:07.939Z,38.92
2019-04-05T18:13:39.222Z,39.17
2019-04-05T18:16:11.715Z,38.92
2019-04-05T18:18:43.154Z,39.37
2019-04-05T18:21:15.059Z,39.10
2019-04-05T18:23:46.355Z,39.15
2019-04-05T18:26:19.149Z,39.33
2019-04-05T18:28:50.486Z,39.33
2019-04-05T18:31:22.816Z,39.79
2019-04-05T18:33:54.159Z,39.49
2019-04-05T18:36:25.533Z,40.11
2019-04-05T18:38:56.848Z,39.86
2019-04-05T18:41:28.177Z,39.92
2019-04-05T18:44:00.418Z,40.18
2019-04-05T18:46:31.748Z,40.16
2019-04-05T18:49:03.095Z,39.71
2019-04-05T18:51:34.491Z,39.96
2019-04-05T18:54:05.910Z,40.22
2019-04-05T18:56:38.342Z,40.32
2019-04-05T18:59:10.778Z,40.82
2019-04-05T19:01:42.374Z,41.33
2019-04-05T19:04:15.287Z,41.29
2019-04-05T19:06:46.599Z,41.08
2019-04-05T19:09:18.278Z,41.38
2019-04-05T19:11:49.588Z,41.84
2019-04-05T19:14:21.868Z,41.58
2019-04-05T19:16:53.201Z,41.07
2019-04-05T19:19:24.613Z,40.85
2019-04-05T19:21:57.369Z,40.47
2019-04-05T19:24:28.705Z,41.02
2019-04-05T19:27:00.061Z,41.01
2019-04-05T19:29:31.602Z,41.24
2019-04-05T19:49:54.588Z,40.78
2019-04-05T19:52:25.924Z,41.79
2019-04-05T19:54:57.335Z,41.21
2019-04-05T19:57:28.658Z,41.66
2019-04-05T19:59:59.958Z,41.27
2019-04-05T20:02:31.276Z,41.47
2019-04-05T20:05:02.630Z,41.57
2019-04-05T20:07:34.990Z,41.96
2019-04-05T20:10:06.482Z,42.32
2019-04-05T20:12:38.899Z,41.66
2019-04-05T20:15:10.223Z,42.23
2019-04-05T20:17:41.557Z,42.65
2019-04-05T20:20:12.895Z,41.87
2019-04-05T20:22:45.376Z,41.78
2019-04-05T20:25:16.729Z,42.23
2019-04-05T20:27:48.087Z,42.00
2019-04-05T20:30:21.016Z,41.92
2019-04-05T20:32:53.426Z,42.42
2019-04-05T20:35:24.767Z,42.39
2019-04-05T20:37:56.104Z,42.48
2019-04-05T20:40:27.424Z,42.83
2019-04-05T20:42:59.990Z,42.53
2019-04-05T20:45:31.582Z,42.61
2019-04-05T20:48:02.904Z,43.12
2019-04-05T20:50:34.308Z,43.20
2019-04-05T20:53:06.538Z,43.75
2019-04-05T20:55:37.870Z,43.28
2019-04-05T20:58:09.261Z,43.28
2019-04-05T21:00:43.197Z,43.77
2019-04-05T21:03:14.479Z,44.13
2019-04-05T21:05:45.819Z,44.20
2019-04-05T21:08:17.149Z,44.54
2019-04-05T21:10:48.480Z,45.49
2019-04-05T21:13:19.740Z,45.11
2019-04-05T21:15:50.963Z,46.12
2019-04-05T21:18:23.319Z,46.12
2019-04-05T21:20:54.622Z,46.40
2019-04-05T21:23:25.942Z,46.40
2019-04-05T21:25:57.234Z,48.69
2019-04-05T21:28:29.580Z,50.76
2019-04-05T21:31:00.922Z,52.62
2019-04-05T21:33:32.215Z,55.02
2019-04-05T21:36:03.566Z,56.28
2019-04-05T21:38:35.378Z,56.28
2019-04-05T21:41:07.789Z,56.54
2019-04-05T21:43:39.283Z,56.63
2019-04-05T21:46:12.816Z,57.55
2019-04-05T21:48:44.337Z,57.55
2019-04-05T21:51:15.870Z,57.23
2019-04-05T21:53:47.540Z,56.67
2019-04-05T21:56:19.083Z,56.57
2019-04-05T21:58:50.662Z,56.71
2019-04-05T22:01:23.186Z,55.85
2019-04-05T22:03:56.332Z,55.26
2019-04-05T22:06:27.981Z,53.92
2019-04-05T22:08:59.484Z,51.90
2019-04-05T22:11:32.565Z,51.45
2019-04-05T22:14:04.073Z,51.06
2019-04-05T22:16:35.713Z,51.00
2019-04-05T22:19:07.507Z,50.42
2019-04-05T22:21:39.158Z,50.93
2019-04-05T22:24:10.795Z,50.66
2019-04-05T22:26:42.345Z,50.29
2019-04-05T22:29:13.869Z,50.73
2019-04-05T22:31:45.409Z,50.77
2019-04-05T22:34:16.945Z,50.79
2019-04-05T22:36:48.502Z,50.92
2019-04-05T22:39:21.506Z,50.61
2019-04-05T22:41:54.349Z,50.61
2019-04-05T22:44:29.230Z,50.94
2019-04-05T22:46:59.114Z,51.07
2019-04-05T22:49:30.689Z,51.30
2019-04-05T22:52:02.253Z,51.52
2019-04-05T22:54:34.249Z,51.71
2019-04-05T22:57:05.793Z,51.71
2019-04-05T22:59:37.546Z,51.54
2019-04-05T23:02:10.071Z,51.70
2019-04-05T23:04:41.587Z,51.68
2019-04-05T23:07:13.335Z,51.47
2019-04-05T23:09:44.803Z,51.19
2019-04-05T23:12:16.442Z,51.43
2019-04-05T23:14:48.127Z,51.26
2019-04-05T23:17:19.652Z,51.30
2019-04-05T23:19:51.211Z,51.40
2019-04-05T23:22:23.543Z,50.83
2019-04-05T23:24:55.071Z,50.67
2019-04-05T23:27:26.530Z,50.92
2019-04-05T23:29:58.129Z,50.59
2019-04-05T23:32:29.688Z,50.66
2019-04-05T23:35:01.181Z,50.75
2019-04-05T23:37:33.709Z,50.55
2019-04-05T23:40:06.268Z,50.52
2019-04-05T23:42:37.801Z,50.65
2019-04-05T23:45:09.903Z,50.44
2019-04-05T23:47:41.444Z,50.99
2019-04-05T23:50:13.160Z,50.72
2019-04-05T23:52:44.719Z,51.14
2019-04-05T23:55:17.426Z,51.05
2019-04-05T23:57:48.984Z,50.35
